Strona główna
METAR-TAF:

METAR-TAF

Lotnisko :

Épinal, Francja

Szerokość geograficzna: 48-19-31N, Długość geograficzna: 6-04-00E, wysokość: 330 m

Aktualna obserwacja pogody

Raport powstał 32 minut temu, godzina 11:30 UTC
Wiatr 11 kt od południowo-południowy zachód
Temperatura 12°C
Wilgotność 71%
Ciśnienie 1007 hPa
Widzialność 10 km lub więcej
Brak chmur poniżej 1500 m i brak chmur cumulonimbus

METAR: LFSG 161130Z AUTO 20011KT CAVOK 12/07 Q1007

czas: 13:02 (12:02 UTC)


TAF: brakujący

Obserwacja i prognoza pogody dla ponad 4000 lotnisk (raport METAR i TAF).

Dostępne stacje oznaczono żółtymi i czerwonymi punktami na mapie.

Najedź kursorem aby zobaczyć nazwę stacji.

Kliknij aby zobaczyć obserwacje i prognozy pogody.

Aby zmienić mapę: kliknij na zielony przycisk z czarnym krzyżykiem, aby powiększyć; na zielony przycisk z myślnikiem, aby pomniejszyć; na zielone strzałki, aby przejść do map sąsiednich.


METAR-TAF: